»·PEaware :: N74TW KSNA-KSBD

N74TW :: KSNA-KSBD

FLIGHT INFORMATION

Flight Status: Arrived
Operator: Privately registered:
United States
More flights under this callsign
Pilot: Kelly C. (19495)
Aircraft: BEECH AIRCRAFT BARON
(BE58)
More flights by this aircraft type
Origin: KSNA John Wayne-Orange Co
United States
Destination: KSBD San Bernardino Intl
United States
More flights between these airports :: More routes between these airports
Route: SLI V8 PDZ
File this flight plan on PilotEdge
Remarks: I-4
Altitude:
(Current/Filed)
5,000ft
Speed:
(Current/Filed)
160kts
Departed: 08-Jan-20 04:27 PM
Arrived: 08-Jan-20 04:51 PM
Distance/Time
Traveled:
40nm/0:23
Distance/Time
To Go:
Arrived

Flight Plot

Page will automatically refresh every two minutes.


Map Options




Map Legend


Flown Route
Filed Route
Departure Airport
Arrival Airport
Navaid (VOR, NDB)
Fix

Horizontal Profiles

Position Reports

Time Latitude Longitude Heading Altitude Ground
Speed
08-Jan-20 16:13 33.673812 -117.872201 118 59ft 0kts
08-Jan-20 16:14 33.673812 -117.872201 118 59ft 0kts
08-Jan-20 16:15 33.673812 -117.872201 118 59ft 0kts
08-Jan-20 16:16 33.673812 -117.872201 118 59ft 0kts
08-Jan-20 16:17 33.673812 -117.872201 118 59ft 0kts
08-Jan-20 16:18 33.673812 -117.872201 118 59ft 0kts
08-Jan-20 16:19 33.673812 -117.872201 118 59ft 0kts
08-Jan-20 16:20 33.673812 -117.872201 118 59ft 0kts
08-Jan-20 16:21 33.673812 -117.872201 118 59ft 0kts
08-Jan-20 16:22 33.675292 -117.870635 25 59ft 21kts
08-Jan-20 16:23 33.679762 -117.867912 21 59ft 18kts
08-Jan-20 16:24 33.681212 -117.866436 118 59ft 0kts
08-Jan-20 16:25 33.681087 -117.866106 114 59ft 9kts
08-Jan-20 16:26 33.665779 -117.874807 203 265ft 133kts
08-Jan-20 16:27 33.637303 -117.911038 231 1477ft 145kts
08-Jan-20 16:28 33.611321 -117.954099 249 2379ft 165kts
08-Jan-20 16:29 33.634245 -117.994399 331 3789ft 159kts
08-Jan-20 16:30 33.677008 -118.013514 341 4959ft 164kts
08-Jan-20 16:31 33.721266 -118.030744 341 5000ft 172kts
08-Jan-20 16:32 33.765655 -118.045941 1 4996ft 174kts
08-Jan-20 16:33 33.795987 -118.006681 70 5000ft 177kts
08-Jan-20 16:34 33.810402 -117.950526 71 4999ft 178kts
08-Jan-20 16:35 33.825396 -117.893920 71 5016ft 183kts
08-Jan-20 16:36 33.839784 -117.834853 73 5015ft 186kts
08-Jan-20 16:37 33.856053 -117.773999 71 5010ft 177kts
08-Jan-20 16:38 33.870560 -117.714621 70 5004ft 169kts
08-Jan-20 16:39 33.885495 -117.657300 71 5041ft 169kts
08-Jan-20 16:40 33.900291 -117.600220 70 5018ft 171kts
08-Jan-20 16:41 33.915369 -117.541724 71 5018ft 172kts
08-Jan-20 16:42 33.942016 -117.490434 52 5018ft 171kts
08-Jan-20 16:43 33.971441 -117.441693 52 5018ft 172kts
08-Jan-20 16:44 33.998780 -117.394935 59 5015ft 162kts
08-Jan-20 16:45 34.019575 -117.346929 61 4882ft 141kts
08-Jan-20 16:46 34.039937 -117.301138 61 3582ft 172kts
08-Jan-20 16:47 34.066870 -117.252413 52 2169ft 153kts
08-Jan-20 16:48 34.079503 -117.212362 75 1787ft 111kts
08-Jan-20 16:49 34.099848 -117.201721 299 1534ft 105kts
08-Jan-20 16:50 34.097163 -117.228249 250 1135ft 38kts
08-Jan-20 16:51 34.095892 -117.236064 330 1135ft 0kts
08-Jan-20 16:52 34.097678 -117.233088 72 1135ft 20kts
08-Jan-20 16:53 34.100183 -117.226724 23 1135ft 18kts
08-Jan-20 16:54 34.100695 -117.226750 201 1135ft 0kts
08-Jan-20 16:55 34.100695 -117.226750 201 1135ft 0kts
08-Jan-20 16:56 34.100695 -117.226750 201 1135ft 0kts
08-Jan-20 16:57 34.100695 -117.226750 201 1135ft 0kts
08-Jan-20 16:58 34.100695 -117.226750 201 1135ft 0kts
08-Jan-20 16:59 34.100695 -117.226750 201 1135ft 0kts
08-Jan-20 17:00 34.100695 -117.226750 201 1135ft 0kts
08-Jan-20 17:01 34.100695 -117.226750 201 1135ft 0kts
08-Jan-20 17:02 34.100695 -117.226750 201 1135ft 0kts
08-Jan-20 17:03 34.100695 -117.226750 201 1135ft 0kts
08-Jan-20 17:04 34.200216 -118.358843 258 741ft 0kts

Navigation Log

Ident Type
Flight plan parsing failed, navigation log unavailable